Weather observations for the past three days for
Scottsdale Airport
Imperial (Metric)
Date Time (mst) Wind (mph) Vis. (mi.) Weather Sky Cond. Temperature (ºF) Relative Humidity Wind Chill (°F) Heat Index (°F) Pressure Precipitation (in)
Air Dwpt 6 hour altimeter (in) sea level (mb) 1 hr 3 hr 6 hr
Max. Min.
09 13:53 Calm 10.00 Fair CLR 99 30.9 9% 94 29.81 1006.5
09 12:53 S 7 10.00 Fair CLR 96.1 33.1 11% 91 29.84 1007.5
09 11:53 Vrbl 3 10.00 Fair CLR 93.9 33.1 12% 89 29.86 1008.2
09 10:53 Calm 10.00 Fair CLR 90 33.1 90 72 13% 86 29.88 1009.0
09 09:53 Calm 10.00 Fair CLR 87.1 32 14% 83 29.89 1009.1
09 08:53 Calm 10.00 Fair CLR 84 34 17% 81 29.89 1009.2
09 07:53 Calm 10.00 Fair CLR 81 37.9 21% 79 29.88 1008.9
09 06:53 Calm 10.00 Fair CLR 78.1 34 20% 77 29.87 1008.6
09 05:53 N 3 10.00 Fair CLR 73 32 22% 29.85 1008.1
09 04:53 Calm 10.00 Fair CLR 73.9 33.1 88 73.9 22% 29.83 1007.4
09 03:53 Calm 10.00 Fair CLR 75 34 22% 76 29.82 1007.0
09 02:53 Calm 10.00 Fair CLR 77 35.1 22% 77 29.81 1006.9
09 01:53 Calm 10.00 Fair CLR 79 36 21% 78 29.82 1006.9
09 00:53 NE 7 10.00 Fair CLR 80.1 35.1 20% 79 29.81 1006.8
08 23:53 NW 3 10.00 Fair CLR 86 32 14% 83 29.81 1006.9
08 22:53 W 7 10.00 Fair CLR 88 32 99 88 13% 84 29.81 1006.7
08 21:53 W 5 10.00 Fair CLR 90 33.1 13% 86 29.81 1006.6
08 20:53 W 8 10.00 Fair CLR 91.9 33.1 12% 88 29.78 1005.8
08 19:53 SW 7 10.00 Fair CLR 93.9 30.9 11% 89 29.76 1005.1
08 18:53 SW 10 10.00 Fair CLR 97 30 9% 92 29.75 1004.6
08 17:53 Vrbl 6 G 17 10.00 Fair CLR 99 28.9 8% 94 29.75 1004.7
08 16:53 SW 8 G 21 10.00 Fair CLR 99 28.9 99 86 8% 94 29.76 1005.2
08 15:53 NW 12 G 22 10.00 Fair CLR 97 35.1 11% 92 29.78 1005.9
08 14:53 W 10 G 20 10.00 Fair CLR 96.1 34 11% 91 29.82 1007.0
08 13:53 Vrbl 7 10.00 Fair CLR 93.9 33.1 12% 89 29.85 1008.0
08 12:53 Calm 10.00 Fair CLR 90 34 14% 86 29.87 1008.8
08 11:53 Vrbl 3 10.00 Fair CLR 88 33.1 14% 84 29.9 1009.8
08 10:53 SE 6 10.00 Fair CLR 86 36 86 68 17% 83 29.92 1010.4
08 09:53 S 8 10.00 Fair CLR 82.9 37 19% 80 29.93 1010.8
08 08:53 SE 8 10.00 Fair CLR 81 34 18% 79 29.93 1010.8
08 07:53 SE 8 10.00 Fair CLR 77 37.9 24% 77 29.93 1010.9
08 06:53 Calm 10.00 Fair CLR 72 37.9 29% 29.93 1011.0
08 05:53 Calm 10.00 Fair CLR 69.1 37 31% 29.9 1010.0
08 04:53 Calm 10.00 Fair CLR 69.1 35.1 82.9 69.1 29% 29.88 1009.5
08 03:53 Calm 10.00 Fair CLR 70 33.1 26% 29.88 1009.3
08 02:53 S 3 10.00 Fair CLR 72 26.1 18% 29.87 1009.2
08 01:53 S 3 10.00 Fair CLR 73 33.1 23% 29.87 1009.0
08 00:53 Calm 10.00 Fair CLR 77 30 18% 77 29.87 1008.9
07 23:53 Calm 10.00 Fair CLR 78.1 28 16% 77 29.87 1008.8
07 22:53 Calm 10.00 Fair CLR 82 25 93.9 80.1 12% 80 29.87 1008.7
07 21:53 N 3 10.00 Fair CLR 82 25 12% 80 29.86 1008.5
07 20:53 W 3 10.00 Fair CLR 86 23 10% 83 29.85 1008.0
07 19:53 W 6 10.00 Fair CLR 88 23 9% 84 29.82 1007.3
07 18:53 SW 12 10.00 Fair CLR 90 23 9% 86 29.8 1006.8
07 17:53 SW 8 10.00 Fair CLR 93 19.9 7% 88 29.79 1006.3
07 16:53 SW 12 G 20 10.00 Fair CLR 93.9 19.9 95 87.1 7% 89 29.79 1006.3
07 15:53 Vrbl 3 10.00 Fair CLR 93.9 18 6% 89 29.8 1006.6
07 14:53 SW 8 10.00 Fair CLR 91.9 19 7% 88 29.82 1007.5
07 13:53 Vrbl 5 10.00 Fair CLR 91 19.9 7% 87 29.85 1008.4
07 12:53 Vrbl 5 10.00 Fair CLR 90 19.9 8% 86 29.87 1009.2
07 11:53 Vrbl 5 10.00 Fair CLR 88 21 8% 84 29.91 1010.3
07 10:53 SW 7 10.00 Fair CLR 87.1 23 87.1 64 9% 84 29.92 1010.9
07 09:53 SW 8 10.00 Fair CLR 84.9 24.1 11% 82 29.93 1011.2
07 08:53 SE 3 10.00 Fair CLR 81 24.1 12% 79 29.94 1011.6
07 07:53 S 7 10.00 Fair CLR 73 35.1 25% 29.95 1012.1
07 06:53 Calm 10.00 Fair CLR 64.9 37.9 37% 29.95 1012.1
07 05:53 NW 3 10.00 Fair CLR 71.1 32 24% 29.93 1011.5
07 04:53 N 5 10.00 Fair CLR 68 32 73.9 64 26% 29.93 1011.4
07 03:53 NW 5 10.00 Fair CLR 64.9 37.9 37% 29.94 1011.8
07 02:53 Calm 10.00 Fair CLR 66.9 35.1 31% 29.95 1012.2
07 01:53 Calm 10.00 Fair CLR 69.1 34 27% 29.96 1012.4
07 00:53 Calm 10.00 Fair CLR 71.1 34 26% 29.97 1012.7
06 23:53 Calm 10.00 Fair CLR 73 35.1 25% 29.97 1012.7
06 22:53 Calm 10.00 Fair CLR 73.9 34 82.9 73.9 23% 29.96 1012.6
06 21:53 Calm 10.00 Fair CLR 75.9 34 22% 77 29.96 1012.5
06 20:53 W 3 10.00 Fair CLR 78.1 34 20% 77 29.94 1012.0
06 19:53 W 5 10.00 Fair CLR 79 33.1 19% 78 29.92 1011.1
06 18:53 W 7 10.00 Fair CLR 81 32 17% 79 29.9 1010.7
06 17:53 W 6 10.00 Fair CLR 82 32 16% 80 29.9 1010.5
06 16:53 Vrbl 3 10.00 Fair CLR 82.9 32 84 73.9 16% 80 29.9 1010.4
06 15:53 W 6 10.00 Fair CLR 82 32 16% 80 29.91 1010.9
Date Time (mst) Wind (mph) Vis. (mi.) Weather Sky Cond. Air Dwpt Max. Min. Relative Humidity Wind Chill (°F) Heat Index (°F) altimeter (in) sea level (mb) 1 hr 3 hr 6 hr
6 hour
Temperature (ºF) Pressure Precipitation (in)